Time;durP1;ratioP1;P1;durP2;ratioP2;P2;SDS_P1;SDS_P2;PMS_P1;PMS_P2;Temp;Humidity;BMP_temperature;BMP_pressure;BME280_temperature;BME280_humidity;BME280_pressure;Samples;Min_cycle;Max_cycle;Signal;HPM_P1;HPM_P2
2023/08/16 00:01:13;;;;;;;6.78;2.47;;;17.70;99.90;;;;;;4863972;29;20046;-53
2023/08/16 00:03:41;;;;;;;6.78;2.30;;;17.70;99.90;;;;;;4864171;29;20073;-52
2023/08/16 00:06:08;;;;;;;7.13;2.80;;;17.70;99.90;;;;;;4863936;29;20129;-54
2023/08/16 00:08:34;;;;;;;7.10;2.97;;;17.60;99.90;;;;;;4863717;29;20455;-55
2023/08/16 00:11:01;;;;;;;7.07;2.45;;;17.60;99.90;;;;;;4863728;29;20061;-54
2023/08/16 00:13:28;;;;;;;7.50;2.97;;;17.50;99.90;;;;;;4864219;29;20038;-54
2023/08/16 00:15:55;;;;;;;7.35;2.70;;;17.50;99.90;;;;;;4863960;29;20125;-55
2023/08/16 00:18:22;;;;;;;6.68;2.65;;;17.40;99.90;;;;;;4863614;29;20139;-50
2023/08/16 00:20:48;;;;;;;4.47;2.58;;;17.40;99.90;;;;;;4863655;29;20474;-53
2023/08/16 00:23:15;;;;;;;5.15;2.50;;;17.40;99.90;;;;;;4863835;29;20064;-51
2023/08/16 00:25:42;;;;;;;8.98;2.58;;;17.30;99.90;;;;;;4863900;29;20049;-55
2023/08/16 00:28:09;;;;;;;5.25;2.28;;;17.30;99.90;;;;;;4863640;29;20049;-54
2023/08/16 00:30:35;;;;;;;5.47;2.40;;;17.30;99.90;;;;;;4877366;29;20497;-53
2023/08/16 00:33:02;;;;;;;8.05;2.63;;;17.20;99.90;;;;;;4877679;29;20049;-53
2023/08/16 00:35:29;;;;;;;6.28;2.60;;;17.20;99.90;;;;;;4877773;29;20050;-52
2023/08/16 00:37:58;;;;;;;7.65;2.80;;;17.20;99.90;;;;;;4877495;29;20046;-57
2023/08/16 00:40:25;;;;;;;7.53;2.58;;;17.20;99.90;;;;;;4862949;29;20053;-53
2023/08/16 00:42:52;;;;;;;4.55;2.20;;;17.10;99.90;;;;;;4862986;29;20055;-52
2023/08/16 00:45:18;;;;;;;7.78;2.42;;;17.10;99.90;;;;;;4877239;29;20072;-55
2023/08/16 00:47:45;;;;;;;5.22;2.47;;;17.10;99.90;;;;;;4861780;29;20064;-54
2023/08/16 00:50:12;;;;;;;6.32;2.70;;;17.00;99.90;;;;;;4846537;29;20054;-57
2023/08/16 00:52:39;;;;;;;6.85;2.90;;;17.00;99.90;;;;;;4877231;29;20124;-52
2023/08/16 00:55:06;;;;;;;6.45;2.90;;;16.90;99.90;;;;;;4877551;29;20486;-55
2023/08/16 00:57:33;;;;;;;6.03;2.70;;;16.90;99.90;;;;;;4862685;29;20470;-55
2023/08/16 00:59:59;;;;;;;7.75;3.13;;;16.80;99.90;;;;;;4877234;29;20045;-55
2023/08/16 01:02:27;;;;;;;6.28;2.67;;;16.80;99.90;;;;;;4877259;29;20053;-53
2023/08/16 01:04:54;;;;;;;7.15;2.95;;;16.80;99.90;;;;;;4877069;29;20459;-54
2023/08/16 01:07:21;;;;;;;5.50;2.72;;;16.80;99.90;;;;;;4862818;29;20049;-51
2023/08/16 01:09:48;;;;;;;8.88;3.10;;;16.80;99.90;;;;;;4863126;29;20084;-54
2023/08/16 01:12:16;;;;;;;7.53;2.88;;;16.70;99.90;;;;;;4862798;29;20033;-53
2023/08/16 01:14:42;;;;;;;7.00;2.60;;;16.70;99.90;;;;;;4876890;29;20118;-55
2023/08/16 01:17:09;;;;;;;7.72;2.67;;;16.70;99.90;;;;;;4862613;29;20132;-52
2023/08/16 01:19:36;;;;;;;8.18;2.63;;;16.70;99.90;;;;;;4862903;29;20052;-51
2023/08/16 01:22:03;;;;;;;6.07;2.80;;;16.70;99.90;;;;;;4876566;29;20144;-55
2023/08/16 01:24:30;;;;;;;7.55;2.50;;;16.60;99.90;;;;;;4863004;29;20052;-55
2023/08/16 01:26:57;;;;;;;6.38;2.60;;;16.60;99.90;;;;;;4862377;29;20431;-51
2023/08/16 01:29:24;;;;;;;8.65;2.53;;;16.60;99.90;;;;;;4862751;29;20071;-51
2023/08/16 01:31:51;;;;;;;6.80;2.40;;;16.60;99.90;;;;;;4876449;29;20060;-55
2023/08/16 01:34:18;;;;;;;6.95;2.95;;;16.50;99.90;;;;;;4862580;29;20041;-54
2023/08/16 01:36:45;;;;;;;6.65;2.55;;;16.50;99.90;;;;;;4862101;29;20049;-53
2023/08/16 01:39:11;;;;;;;4.80;2.10;;;16.50;99.90;;;;;;4862447;29;20073;-55
2023/08/16 01:41:38;;;;;;;7.15;3.10;;;16.40;99.90;;;;;;4876315;29;20041;-57
2023/08/16 01:44:06;;;;;;;5.80;2.80;;;16.50;99.90;;;;;;4862316;29;20128;-51
2023/08/16 01:46:32;;;;;;;4.53;2.40;;;16.50;99.90;;;;;;4861988;29;20123;-54
2023/08/16 01:48:59;;;;;;;7.47;2.75;;;16.40;99.90;;;;;;4876513;29;20054;-57
2023/08/16 01:51:26;;;;;;;6.50;2.45;;;16.40;99.90;;;;;;4862599;29;20066;-54
2023/08/16 01:53:53;;;;;;;7.70;3.05;;;16.30;99.90;;;;;;4861925;29;20136;-53
2023/08/16 01:56:20;;;;;;;7.55;3.05;;;16.30;99.90;;;;;;4861658;29;20106;-56
2023/08/16 01:58:47;;;;;;;4.80;2.60;;;16.30;99.90;;;;;;4875714;29;20088;-55
2023/08/16 02:01:13;;;;;;;9.77;3.20;;;16.30;99.90;;;;;;4876294;29;20182;-54
2023/08/16 02:03:40;;;;;;;7.28;3.03;;;16.30;99.90;;;;;;4861630;29;20126;-53
2023/08/16 02:06:08;;;;;;;10.40;2.95;;;16.30;99.90;;;;;;4861436;29;20089;-55
2023/08/16 02:08:35;;;;;;;10.75;2.75;;;16.20;99.90;;;;;;4875682;29;20053;-56
2023/08/16 02:11:02;;;;;;;6.97;2.78;;;16.10;99.90;;;;;;4860383;29;20105;-54
2023/08/16 02:13:29;;;;;;;8.70;2.65;;;16.10;99.90;;;;;;4875804;29;20045;-51
2023/08/16 02:15:56;;;;;;;6.93;3.10;;;16.10;99.90;;;;;;4861739;29;20044;-54
2023/08/16 02:18:23;;;;;;;7.95;3.58;;;16.10;99.90;;;;;;4861371;29;20501;-54
2023/08/16 02:20:50;;;;;;;8.35;3.50;;;16.10;99.90;;;;;;4876124;29;20181;-54
2023/08/16 02:23:17;;;;;;;8.23;3.88;;;16.00;99.90;;;;;;4861174;29;20045;-53
2023/08/16 02:25:43;;;;;;;7.25;2.85;;;16.00;99.90;;;;;;4861320;29;20126;-51
2023/08/16 02:28:10;;;;;;;6.10;3.17;;;16.00;99.90;;;;;;4861532;29;20048;-54
2023/08/16 02:30:37;;;;;;;7.93;3.03;;;15.90;99.90;;;;;;4875708;29;20060;-53
2023/08/16 02:33:04;;;;;;;5.43;3.05;;;15.90;99.90;;;;;;4875779;29;20461;-56
2023/08/16 02:35:31;;;;;;;8.25;3.10;;;15.90;99.90;;;;;;4861011;29;20061;-55
2023/08/16 02:37:58;;;;;;;10.57;3.38;;;15.90;99.90;;;;;;4861477;29;20053;-50
2023/08/16 02:40:24;;;;;;;7.03;3.10;;;15.90;99.90;;;;;;4861442;29;20088;-54
2023/08/16 02:42:51;;;;;;;8.90;2.90;;;15.80;99.90;;;;;;4875569;29;20046;-56
2023/08/16 02:45:18;;;;;;;4.75;2.70;;;15.80;99.90;;;;;;4861121;29;20052;-54
2023/08/16 02:47:45;;;;;;;6.60;2.90;;;15.80;99.90;;;;;;4860852;29;20100;-55
2023/08/16 02:50:12;;;;;;;5.95;3.38;;;15.70;99.90;;;;;;4875805;29;20057;-55
2023/08/16 02:52:39;;;;;;;7.53;2.90;;;15.80;99.90;;;;;;4860851;29;20398;-55
2023/08/16 02:55:06;;;;;;;5.80;3.10;;;15.70;99.90;;;;;;4861012;29;20125;-55
2023/08/16 02:57:32;;;;;;;7.40;3.17;;;15.70;99.90;;;;;;4860839;29;20544;-51
2023/08/16 02:59:59;;;;;;;5.85;3.03;;;15.70;99.90;;;;;;4860961;29;20041;-53
2023/08/16 03:02:27;;;;;;;7.30;3.13;;;15.70;99.90;;;;;;4860626;29;20050;-57
2023/08/16 03:04:54;;;;;;;6.68;2.92;;;15.60;99.90;;;;;;4860815;29;20045;-56
2023/08/16 03:07:21;;;;;;;8.82;3.55;;;15.60;99.90;;;;;;4859787;29;20128;-55
2023/08/16 03:09:48;;;;;;;7.03;3.03;;;15.60;99.90;;;;;;4875090;29;20053;-53
2023/08/16 03:12:15;;;;;;;8.57;4.03;;;15.60;99.90;;;;;;4859866;29;20065;-51
2023/08/16 03:14:43;;;;;;;10.73;9.27;;;15.50;99.90;;;;;;4875368;29;20098;-55
2023/08/16 03:17:11;;;;;;;12.07;10.82;;;15.50;99.90;;;;;;4860501;29;20049;-54
2023/08/16 03:19:39;;;;;;;9.00;4.30;;;15.50;99.90;;;;;;4861167;29;20046;-56
2023/08/16 03:22:05;;;;;;;6.78;3.22;;;15.50;99.90;;;;;;4860849;29;20454;-54
2023/08/16 03:24:32;;;;;;;4.95;2.47;;;15.40;99.90;;;;;;4860665;29;20049;-53
2023/08/16 03:26:59;;;;;;;6.68;3.20;;;15.40;99.90;;;;;;4875141;29;20084;-54
2023/08/16 03:29:28;;;;;;;4.72;2.78;;;15.40;99.90;;;;;;4874756;29;20053;-56
2023/08/16 03:31:54;;;;;;;7.05;2.60;;;15.40;99.90;;;;;;4860823;29;20052;-53
2023/08/16 03:34:22;;;;;;;5.40;3.05;;;15.30;99.90;;;;;;4874676;29;20137;-53
2023/08/16 03:36:49;;;;;;;6.72;2.70;;;15.30;99.90;;;;;;4874606;29;20074;-54
2023/08/16 03:39:17;;;;;;;5.43;2.65;;;15.30;99.90;;;;;;4874685;29;20080;-55
2023/08/16 03:41:44;;;;;;;4.50;2.38;;;15.30;99.90;;;;;;4874814;29;20092;-54
2023/08/16 03:44:11;;;;;;;6.15;2.50;;;15.30;99.90;;;;;;4875091;29;20053;-51
2023/08/16 03:46:40;;;;;;;5.38;2.78;;;15.20;99.90;;;;;;4874498;29;20054;-54
2023/08/16 03:49:07;;;;;;;5.38;2.90;;;15.20;99.90;;;;;;4860779;29;20053;-54
2023/08/16 03:51:34;;;;;;;7.18;2.75;;;15.20;99.90;;;;;;4860287;29;20056;-51
2023/08/16 03:54:00;;;;;;;6.15;3.40;;;15.20;99.90;;;;;;4860859;29;20038;-55
2023/08/16 03:56:29;;;;;;;4.88;2.75;;;15.10;99.90;;;;;;4860969;29;20049;-56
2023/08/16 03:58:55;;;;;;;8.13;3.10;;;15.10;99.90;;;;;;4860439;29;20072;-51
2023/08/16 04:01:22;;;;;;;6.65;3.30;;;15.20;99.90;;;;;;4874386;29;20057;-51
2023/08/16 04:03:49;;;;;;;6.43;2.83;;;15.10;99.90;;;;;;4874653;29;20592;-54
2023/08/16 04:06:19;;;;;;;9.60;2.92;;;15.10;99.90;;;;;;4874795;29;20540;-55
2023/08/16 04:08:47;;;;;;;6.03;2.50;;;15.10;99.90;;;;;;4860781;29;20058;-55
2023/08/16 04:11:14;;;;;;;5.07;2.63;;;15.10;99.90;;;;;;4859061;29;20046;-55
2023/08/16 04:13:41;;;;;;;5.82;3.00;;;15.10;99.90;;;;;;4874176;29;20053;-50
2023/08/16 04:16:07;;;;;;;7.00;3.13;;;15.00;99.90;;;;;;4860255;29;20042;-48
2023/08/16 04:18:34;;;;;;;7.53;3.72;;;15.00;99.90;;;;;;4874402;29;20046;-48
2023/08/16 04:21:01;;;;;;;6.60;3.33;;;15.00;99.90;;;;;;4874344;29;20474;-49
2023/08/16 04:23:28;;;;;;;10.93;3.80;;;15.00;99.90;;;;;;4876965;29;20049;-54
2023/08/16 04:25:55;;;;;;;5.97;3.70;;;15.00;99.90;;;;;;4863835;29;20042;-51
2023/08/16 04:28:21;;;;;;;7.55;4.03;;;14.90;99.90;;;;;;4877632;29;20060;-48
2023/08/16 04:30:48;;;;;;;6.82;4.38;;;14.90;99.90;;;;;;4877669;29;20046;-51
2023/08/16 04:33:15;;;;;;;10.45;4.53;;;14.90;99.90;;;;;;4877617;29;20109;-54
2023/08/16 04:35:42;;;;;;;9.30;4.43;;;14.90;99.90;;;;;;4863676;29;20038;-50
2023/08/16 04:38:09;;;;;;;6.75;3.65;;;14.90;99.90;;;;;;4877535;29;20133;-55
2023/08/16 04:40:37;;;;;;;9.95;4.35;;;14.90;99.90;;;;;;4877807;29;20049;-55
2023/08/16 04:43:04;;;;;;;7.28;4.10;;;14.90;99.90;;;;;;4877226;29;20494;-55
2023/08/16 04:45:31;;;;;;;5.65;3.38;;;14.80;99.90;;;;;;4877082;29;20109;-53
2023/08/16 04:47:58;;;;;;;5.40;2.60;;;14.80;99.90;;;;;;4877464;29;20045;-53
2023/08/16 04:50:26;;;;;;;6.10;2.80;;;14.70;99.90;;;;;;4877550;29;20413;-55
2023/08/16 04:52:53;;;;;;;5.40;2.50;;;14.80;99.90;;;;;;4863480;29;20129;-55
2023/08/16 04:55:23;;;;;;;5.15;2.40;;;14.70;99.90;;;;;;4877950;29;20449;-57
2023/08/16 04:57:50;;;;;;;6.88;2.83;;;14.70;99.90;;;;;;4846245;29;20081;-56
2023/08/16 05:00:19;;;;;;;4.50;2.30;;;14.70;99.90;;;;;;4877308;29;20042;-53
2023/08/16 05:02:53;;;;;;;6.35;2.90;;;14.70;99.90;;;;;;4877081;29;20137;-53
2023/08/16 05:05:20;;;;;;;5.65;2.83;;;14.70;99.90;;;;;;4876833;29;20053;-54
2023/08/16 05:07:47;;;;;;;5.43;3.13;;;14.70;99.90;;;;;;4863217;29;20058;-52
2023/08/16 05:10:13;;;;;;;5.60;2.67;;;14.70;99.90;;;;;;4877561;29;20386;-53
2023/08/16 05:12:41;;;;;;;7.00;3.00;;;14.70;99.90;;;;;;4877111;29;20140;-54
2023/08/16 05:15:10;;;;;;;5.18;2.60;;;14.60;99.90;;;;;;4862853;29;20124;-50
2023/08/16 05:17:37;;;;;;;4.95;2.55;;;14.60;99.90;;;;;;4877097;29;20474;-50
2023/08/16 05:20:06;;;;;;;6.78;3.15;;;14.70;99.90;;;;;;4876744;29;20144;-55
2023/08/16 05:22:33;;;;;;;9.60;3.42;;;14.70;99.90;;;;;;4862908;29;20046;-53
2023/08/16 05:25:00;;;;;;;5.68;3.08;;;14.70;99.90;;;;;;4863188;29;20050;-54
2023/08/16 05:27:28;;;;;;;6.28;2.90;;;14.70;99.90;;;;;;4862350;29;20049;-51
2023/08/16 05:29:55;;;;;;;5.53;3.28;;;14.80;99.90;;;;;;4862952;29;20053;-53
2023/08/16 05:32:22;;;;;;;5.65;2.97;;;14.80;99.90;;;;;;4876662;29;20049;-55
2023/08/16 05:34:49;;;;;;;6.63;3.10;;;14.80;99.90;;;;;;4861680;29;20064;-52
2023/08/16 05:37:16;;;;;;;6.03;2.92;;;14.90;99.90;;;;;;4862153;29;20042;-50
2023/08/16 05:39:42;;;;;;;5.40;3.13;;;14.90;99.90;;;;;;4862274;29;20433;-52
2023/08/16 05:42:09;;;;;;;5.28;3.28;;;14.90;99.90;;;;;;4861300;29;20049;-51
2023/08/16 05:44:36;;;;;;;5.15;3.10;;;14.90;99.90;;;;;;4862155;29;20045;-53
2023/08/16 05:47:03;;;;;;;5.78;3.30;;;15.00;99.90;;;;;;4861859;29;20041;-54
2023/08/16 05:49:30;;;;;;;7.47;3.38;;;15.00;99.90;;;;;;4862321;29;20041;-56
2023/08/16 05:51:56;;;;;;;5.35;2.90;;;15.00;99.90;;;;;;4861988;29;20056;-53
2023/08/16 05:54:23;;;;;;;6.55;3.15;;;15.10;99.90;;;;;;4862443;29;20525;-55
2023/08/16 05:56:50;;;;;;;6.93;2.97;;;15.10;99.90;;;;;;4861724;29;20060;-50
2023/08/16 05:59:17;;;;;;;4.47;3.20;;;15.20;99.90;;;;;;4861978;29;20492;-52
2023/08/16 06:01:44;;;;;;;4.90;3.20;;;15.20;99.90;;;;;;4861966;29;20390;-51
2023/08/16 06:04:10;;;;;;;6.43;3.70;;;15.20;99.90;;;;;;4862010;29;20391;-55
2023/08/16 06:06:37;;;;;;;9.02;3.70;;;15.30;99.90;;;;;;4861696;29;20493;-55
2023/08/16 06:09:05;;;;;;;7.32;3.30;;;15.30;99.90;;;;;;4862070;29;20056;-54
2023/08/16 06:11:32;;;;;;;9.48;4.22;;;15.30;99.90;;;;;;4861787;29;20045;-51
2023/08/16 06:14:00;;;;;;;7.10;3.40;;;15.40;99.90;;;;;;4861650;29;20198;-54
2023/08/16 06:16:27;;;;;;;8.65;4.30;;;15.40;99.90;;;;;;4861550;29;20049;-57
2023/08/16 06:18:55;;;;;;;9.70;3.92;;;15.50;99.90;;;;;;4862115;29;20521;-57
2023/08/16 06:21:22;;;;;;;8.57;4.28;;;15.50;99.90;;;;;;4861352;29;20038;-53
2023/08/16 06:23:49;;;;;;;9.40;4.22;;;15.50;99.90;;;;;;4861359;29;20572;-53
2023/08/16 06:26:16;;;;;;;7.90;3.60;;;15.60;99.90;;;;;;4861705;29;20045;-54
2023/08/16 06:28:43;;;;;;;10.48;4.22;;;15.60;99.90;;;;;;4861859;29;20050;-55
2023/08/16 06:31:10;;;;;;;10.82;3.90;;;15.70;99.90;;;;;;4861713;29;20056;-54
2023/08/16 06:33:37;;;;;;;8.93;3.67;;;15.70;99.90;;;;;;4861425;29;20042;-52
2023/08/16 06:36:04;;;;;;;7.57;3.55;;;15.70;99.90;;;;;;4861294;29;20049;-52
2023/08/16 06:38:30;;;;;;;8.73;4.03;;;15.70;99.90;;;;;;4861834;29;20050;-53
2023/08/16 06:40:57;;;;;;;9.15;4.07;;;15.70;99.90;;;;;;4861352;29;20046;-53
2023/08/16 06:43:24;;;;;;;7.93;3.70;;;15.80;99.90;;;;;;4861323;29;20045;-52
2023/08/16 06:45:51;;;;;;;8.10;4.38;;;15.80;99.90;;;;;;4861711;29;20373;-54
2023/08/16 06:48:18;;;;;;;8.43;3.33;;;15.80;99.90;;;;;;4860894;29;20471;-51
2023/08/16 06:50:45;;;;;;;8.25;3.95;;;15.90;99.90;;;;;;4860921;29;20046;-55
2023/08/16 06:53:12;;;;;;;8.35;3.80;;;16.00;99.90;;;;;;4861063;29;20045;-51
2023/08/16 06:55:39;;;;;;;8.75;3.78;;;16.00;99.90;;;;;;4860759;29;20116;-54
2023/08/16 06:58:05;;;;;;;7.13;3.40;;;16.10;99.90;;;;;;4860866;29;20426;-53
2023/08/16 07:00:32;;;;;;;7.80;3.67;;;16.10;99.90;;;;;;4861137;29;20045;-52
2023/08/16 07:02:59;;;;;;;7.70;4.03;;;16.20;99.90;;;;;;4859794;29;20057;-52
2023/08/16 07:05:26;;;;;;;11.13;4.75;;;16.30;99.90;;;;;;4860622;29;20088;-53
2023/08/16 07:07:53;;;;;;;7.03;4.75;;;16.30;99.90;;;;;;4861087;29;20045;-50
2023/08/16 07:10:20;;;;;;;8.32;4.65;;;16.30;99.90;;;;;;4860711;29;20084;-53
2023/08/16 07:12:47;;;;;;;8.30;4.63;;;16.40;99.90;;;;;;4851969;29;20042;-53
2023/08/16 07:15:13;;;;;;;10.57;5.13;;;16.40;99.90;;;;;;4856292;29;20041;-56
2023/08/16 07:17:40;;;;;;;8.35;4.57;;;16.50;99.90;;;;;;4856237;29;20038;-54
2023/08/16 07:20:07;;;;;;;8.88;4.70;;;16.50;99.90;;;;;;4841777;29;20042;-56
2023/08/16 07:22:36;;;;;;;9.40;4.80;;;16.60;99.90;;;;;;4841642;29;20037;-53
2023/08/16 07:25:02;;;;;;;9.23;4.80;;;16.70;99.90;;;;;;4855900;29;20056;-53
2023/08/16 07:27:29;;;;;;;13.93;5.30;;;16.70;99.90;;;;;;4841601;29;20081;-50
2023/08/16 07:29:56;;;;;;;8.95;5.20;;;16.80;99.90;;;;;;4841951;29;20057;-50
2023/08/16 07:32:23;;;;;;;10.45;5.68;;;16.80;99.90;;;;;;4841627;29;20049;-55
2023/08/16 07:34:50;;;;;;;9.18;4.50;;;16.80;99.90;;;;;;4841774;29;20042;-54
2023/08/16 07:37:17;;;;;;;9.32;5.03;;;16.90;99.90;;;;;;4841706;29;20098;-52
2023/08/16 07:39:44;;;;;;;8.60;4.93;;;16.90;99.90;;;;;;4823389;29;20062;-56
2023/08/16 07:42:11;;;;;;;10.35;4.93;;;17.00;99.90;;;;;;4823597;29;20069;-56
2023/08/16 07:44:37;;;;;;;6.70;4.53;;;17.00;99.90;;;;;;4840619;29;20426;-55
2023/08/16 07:47:04;;;;;;;8.88;4.90;;;17.10;99.90;;;;;;4841618;29;20042;-55
2023/08/16 07:49:31;;;;;;;11.73;5.00;;;17.10;99.90;;;;;;4841438;29;20053;-56
2023/08/16 07:51:58;;;;;;;9.00;4.75;;;17.20;99.90;;;;;;4841697;29;20498;-54
2023/08/16 07:54:25;;;;;;;7.53;4.82;;;17.20;99.90;;;;;;4841155;29;20094;-53
2023/08/16 07:56:52;;;;;;;10.30;5.20;;;17.30;99.90;;;;;;4841912;29;20116;-53
2023/08/16 07:59:19;;;;;;;10.65;4.95;;;17.40;99.90;;;;;;4844739;29;20447;-55
2023/08/16 08:01:45;;;;;;;8.93;4.68;;;17.40;99.90;;;;;;4845312;29;20147;-53
2023/08/16 08:04:12;;;;;;;8.70;4.70;;;17.50;99.90;;;;;;4858933;29;20053;-53
2023/08/16 08:06:39;;;;;;;8.65;3.88;;;17.60;99.90;;;;;;4845096;29;20474;-53
2023/08/16 08:09:06;;;;;;;11.75;4.15;;;17.70;99.90;;;;;;4845000;29;20421;-55
2023/08/16 08:11:33;;;;;;;7.97;4.80;;;17.70;99.90;;;;;;4844328;29;20078;-53
2023/08/16 08:13:59;;;;;;;12.48;4.60;;;17.80;99.90;;;;;;4858747;29;20503;-52
2023/08/16 08:16:26;;;;;;;11.85;4.28;;;17.80;99.90;;;;;;4844897;29;20049;-52
2023/08/16 08:18:53;;;;;;;10.05;4.38;;;17.90;99.90;;;;;;4844109;29;20123;-54
2023/08/16 08:21:20;;;;;;;12.57;4.55;;;17.90;99.90;;;;;;4844827;29;20056;-56
2023/08/16 08:23:47;;;;;;;9.63;4.38;;;17.90;99.90;;;;;;4844563;29;20397;-49
2023/08/16 08:26:14;;;;;;;12.30;4.75;;;18.00;99.90;;;;;;4858561;29;20054;-53
2023/08/16 08:28:40;;;;;;;9.43;3.83;;;18.10;99.90;;;;;;4843264;29;20050;-55
2023/08/16 08:31:07;;;;;;;7.57;4.03;;;18.10;99.90;;;;;;4858373;29;20079;-54
2023/08/16 08:33:34;;;;;;;8.43;4.30;;;18.20;99.90;;;;;;4844243;29;20052;-55
2023/08/16 08:36:03;;;;;;;9.43;4.07;;;18.20;99.90;;;;;;4844190;29;20049;-51
2023/08/16 08:38:30;;;;;;;10.15;3.80;;;18.30;99.90;;;;;;4844400;29;20037;-55
2023/08/16 08:40:57;;;;;;;10.30;4.28;;;18.30;99.90;;;;;;4844485;29;20128;-55
2023/08/16 08:43:24;;;;;;;12.10;4.30;;;18.40;99.90;;;;;;4844335;29;20049;-54
2023/08/16 08:45:51;;;;;;;9.13;3.90;;;18.50;99.90;;;;;;4844349;29;20504;-53
2023/08/16 08:48:18;;;;;;;9.00;3.67;;;18.60;99.90;;;;;;4843932;29;20053;-54
2023/08/16 08:50:45;;;;;;;13.38;4.10;;;18.60;99.90;;;;;;4844111;29;20064;-56
2023/08/16 08:53:11;;;;;;;9.05;3.78;;;18.70;99.90;;;;;;4843953;29;20489;-51
2023/08/16 08:55:39;;;;;;;6.30;3.80;;;18.70;99.90;;;;;;4858066;29;20141;-53
2023/08/16 08:58:06;;;;;;;8.10;4.40;;;18.80;99.90;;;;;;4843508;29;20118;-57
2023/08/16 09:00:34;;;;;;;11.27;4.20;;;18.90;99.90;;;;;;4843849;29;20065;-53
2023/08/16 09:03:00;;;;;;;8.93;3.72;;;18.90;99.90;;;;;;4844195;29;20049;-55
2023/08/16 09:05:27;;;;;;;13.45;4.10;;;19.00;99.90;;;;;;4857579;29;20149;-54
2023/08/16 09:07:54;;;;;;;12.70;3.72;;;19.00;99.90;;;;;;4843664;29;20053;-56
2023/08/16 09:10:21;;;;;;;10.68;3.45;;;19.10;99.90;;;;;;4843152;29;20128;-57
2023/08/16 09:12:48;;;;;;;11.82;3.80;;;19.10;99.90;;;;;;4843726;29;20050;-56
2023/08/16 09:15:14;;;;;;;12.20;3.92;;;19.20;99.90;;;;;;4844296;29;20504;-56
2023/08/16 09:17:41;;;;;;;6.90;3.38;;;19.20;99.90;;;;;;4844225;29;20493;-53
2023/08/16 09:20:08;;;;;;;8.68;3.50;;;19.30;99.90;;;;;;4843082;29;20042;-56
2023/08/16 09:22:35;;;;;;;6.80;3.28;;;19.40;99.90;;;;;;4843078;29;20050;-53
2023/08/16 09:25:02;;;;;;;12.73;3.78;;;19.40;99.90;;;;;;4842645;29;20049;-54
2023/08/16 09:27:29;;;;;;;5.40;3.03;;;19.50;99.90;;;;;;4842760;29;20052;-51
2023/08/16 09:29:56;;;;;;;8.18;3.72;;;19.60;99.90;;;;;;4842768;29;20042;-57
2023/08/16 09:32:23;;;;;;;7.55;3.33;;;19.60;99.90;;;;;;4842902;29;20494;-57
2023/08/16 09:34:50;;;;;;;5.88;3.00;;;19.70;99.90;;;;;;4842818;29;20098;-55
2023/08/16 09:37:22;;;;;;;8.00;3.28;;;19.80;99.90;;;;;;4843135;29;20132;-54
2023/08/16 09:39:50;;;;;;;8.05;3.47;;;19.90;99.90;;;;;;4843302;29;20126;-53
2023/08/16 09:42:17;;;;;;;7.82;3.25;;;19.90;99.90;;;;;;4843430;29;20050;-53
2023/08/16 09:44:47;;;;;;;6.18;3.10;;;20.00;99.90;;;;;;4843014;29;20130;-55
2023/08/16 09:47:14;;;;;;;8.45;3.15;;;20.00;99.90;;;;;;4842988;29;20156;-55
2023/08/16 09:49:46;;;;;;;6.05;3.08;;;20.10;99.90;;;;;;4843320;29;20545;-50
2023/08/16 09:52:13;;;;;;;11.82;3.05;;;20.10;99.90;;;;;;4857084;29;20050;-52
2023/08/16 09:54:40;;;;;;;11.55;3.28;;;20.20;99.90;;;;;;4843246;29;20050;-54
2023/08/16 09:57:07;;;;;;;7.68;2.92;;;20.20;99.90;;;;;;4842776;29;20120;-55
2023/08/16 09:59:37;;;;;;;6.80;3.15;;;20.30;99.90;;;;;;4842840;29;20062;-53
2023/08/16 10:02:06;;;;;;;6.85;2.72;;;20.30;99.90;;;;;;4843067;29;20143;-54
2023/08/16 10:04:36;;;;;;;6.47;3.15;;;20.40;99.90;;;;;;4842695;29;20053;-55
2023/08/16 10:07:07;;;;;;;8.43;2.42;;;20.40;99.90;;;;;;4857048;29;20050;-54
2023/08/16 10:09:37;;;;;;;5.85;2.40;;;20.50;99.90;;;;;;4842788;29;20069;-55
2023/08/16 10:12:04;;;;;;;8.48;2.90;;;20.50;99.90;;;;;;4842848;29;20129;-54
2023/08/16 10:14:31;;;;;;;5.13;2.67;;;20.70;99.90;;;;;;4842760;29;20379;-53
2023/08/16 10:16:59;;;;;;;8.52;3.10;;;20.70;99.90;;;;;;4842767;29;20057;-54
2023/08/16 10:19:26;;;;;;;4.25;2.80;;;20.60;99.90;;;;;;4842745;29;20071;-52
2023/08/16 10:21:53;;;;;;;5.18;2.60;;;20.70;99.90;;;;;;4842420;29;20399;-52
2023/08/16 10:24:20;;;;;;;7.47;2.75;;;20.70;99.90;;;;;;4856528;29;20102;-56
2023/08/16 10:26:58;;;;;;;6.78;2.40;;;20.80;99.90;;;;;;4842660;29;20054;-52
2023/08/16 10:29:25;;;;;;;7.50;2.58;;;20.80;99.90;;;;;;4841813;29;20100;-57
2023/08/16 10:31:52;;;;;;;9.73;2.63;;;20.80;99.90;;;;;;4842250;29;20050;-57
2023/08/16 10:34:19;;;;;;;7.45;2.30;;;20.90;99.90;;;;;;4842252;29;20471;-56
2023/08/16 10:36:46;;;;;;;5.38;2.30;;;21.00;99.90;;;;;;4842396;29;20398;-56
2023/08/16 10:39:13;;;;;;;5.18;2.40;;;21.10;99.90;;;;;;4842065;29;20042;-54
2023/08/16 10:41:40;;;;;;;4.85;2.28;;;21.10;99.90;;;;;;4842052;29;20125;-58
2023/08/16 10:44:08;;;;;;;5.85;2.60;;;21.20;99.90;;;;;;4842122;29;20057;-54
2023/08/16 10:46:34;;;;;;;5.95;2.38;;;21.20;99.90;;;;;;4842089;29;20129;-52
2023/08/16 10:49:01;;;;;;;7.10;2.30;;;21.20;99.90;;;;;;4841898;29;20083;-53
2023/08/16 10:51:28;;;;;;;6.13;2.35;;;21.40;99.90;;;;;;4842024;29;20061;-56
2023/08/16 10:53:55;;;;;;;6.35;2.08;;;21.50;99.90;;;;;;4841893;29;20410;-51
2023/08/16 10:56:22;;;;;;;4.70;2.30;;;21.70;99.80;;;;;;4841986;29;20510;-52
2023/08/16 10:58:49;;;;;;;6.35;2.50;;;21.70;99.30;;;;;;4841870;29;20129;-56
2023/08/16 11:01:16;;;;;;;6.30;2.53;;;21.80;99.30;;;;;;4842035;29;20046;-57
2023/08/16 11:03:49;;;;;;;8.32;2.88;;;21.90;99.20;;;;;;4866980;29;20076;-58
2023/08/16 11:06:16;;;;;;;6.20;2.38;;;22.10;99.20;;;;;;4860429;29;20568;-57
2023/08/16 11:08:43;;;;;;;6.53;2.10;;;22.30;99.00;;;;;;4860484;29;20060;-53
2023/08/16 11:11:10;;;;;;;7.13;2.00;;;22.40;97.70;;;;;;4874338;29;20052;-57
2023/08/16 11:13:37;;;;;;;4.05;2.08;;;22.50;98.00;;;;;;4860206;29;20129;-52
2023/08/16 11:16:04;;;;;;;4.95;2.28;;;22.60;97.60;;;;;;4860410;29;20508;-51
2023/08/16 11:18:31;;;;;;;4.63;2.00;;;22.70;97.30;;;;;;4860205;29;20078;-53
2023/08/16 11:21:01;;;;;;;6.13;2.45;;;22.70;97.60;;;;;;4860271;29;20045;-53
2023/08/16 11:23:28;;;;;;;6.28;1.88;;;22.80;97.10;;;;;;4860663;29;20477;-55
2023/08/16 11:25:54;;;;;;;5.10;2.45;;;23.00;97.40;;;;;;4860724;29;20053;-51
2023/08/16 11:28:21;;;;;;;7.95;2.50;;;23.20;96.60;;;;;;4861157;29;20049;-54
2023/08/16 11:30:48;;;;;;;5.45;2.05;;;23.20;96.50;;;;;;4860830;29;20042;-46
2023/08/16 11:33:15;;;;;;;6.18;2.97;;;23.10;96.60;;;;;;4862168;29;20054;-48
2023/08/16 11:35:42;;;;;;;8.80;2.55;;;23.10;96.60;;;;;;4863856;29;20450;-49
2023/08/16 11:38:09;;;;;;;6.10;2.33;;;23.10;96.80;;;;;;4863707;29;20087;-48
2023/08/16 11:40:37;;;;;;;5.28;2.30;;;23.20;96.50;;;;;;4854105;29;20437;-54
2023/08/16 11:43:04;;;;;;;6.18;2.08;;;23.20;95.90;;;;;;4845518;29;20164;-53
2023/08/16 11:45:32;;;;;;;6.00;2.75;;;23.20;96.80;;;;;;4845702;29;20050;-50
2023/08/16 11:47:59;;;;;;;7.20;2.53;;;23.30;96.70;;;;;;4845181;29;20050;-55
2023/08/16 11:50:26;;;;;;;6.38;2.30;;;23.40;96.00;;;;;;4844795;29;20120;-56
2023/08/16 11:52:53;;;;;;;4.47;2.22;;;23.40;96.10;;;;;;4844790;29;20360;-55
2023/08/16 11:55:20;;;;;;;6.20;2.70;;;23.40;95.80;;;;;;4844914;29;20118;-55
2023/08/16 11:57:48;;;;;;;5.97;2.38;;;23.40;95.80;;;;;;4844774;29;20687;-55
2023/08/16 12:00:15;;;;;;;7.10;1.90;;;23.50;96.20;;;;;;4844933;29;20085;-57
2023/08/16 12:02:45;;;;;;;7.40;2.25;;;23.60;95.20;;;;;;4837756;29;20064;-55
2023/08/16 12:05:14;;;;;;;5.90;2.28;;;23.60;95.50;;;;;;4844655;29;20191;-56
2023/08/16 12:07:41;;;;;;;4.95;2.20;;;23.80;95.90;;;;;;4844992;29;20140;-55
2023/08/16 12:10:07;;;;;;;6.72;2.30;;;24.00;94.80;;;;;;4844904;29;20053;-55
2023/08/16 12:12:34;;;;;;;5.13;2.20;;;24.10;94.90;;;;;;4844414;29;20056;-58
2023/08/16 12:15:01;;;;;;;5.40;2.30;;;24.10;94.80;;;;;;4844829;29;20046;-52
2023/08/16 12:17:28;;;;;;;7.35;2.10;;;24.20;94.10;;;;;;4844750;29;20506;-58
2023/08/16 12:19:54;;;;;;;6.22;2.25;;;24.30;94.90;;;;;;4842925;29;20038;-56
2023/08/16 12:22:21;;;;;;;4.28;1.85;;;24.50;94.60;;;;;;4844135;29;20117;-56
2023/08/16 12:24:48;;;;;;;8.63;2.30;;;24.70;93.90;;;;;;4844747;29;20060;-56
2023/08/16 12:27:15;;;;;;;7.38;2.42;;;24.80;93.80;;;;;;4844337;29;20048;-56
2023/08/16 12:29:41;;;;;;;4.57;1.85;;;24.80;93.80;;;;;;4844703;29;20110;-55
2023/08/16 12:32:08;;;;;;;6.03;2.08;;;24.90;93.90;;;;;;4844312;29;20056;-52
2023/08/16 12:34:35;;;;;;;4.40;1.80;;;24.90;93.30;;;;;;4844598;29;20049;-57
2023/08/16 12:37:12;;;;;;;4.93;1.90;;;24.90;93.20;;;;;;4844817;29;20132;-56
2023/08/16 12:39:39;;;;;;;3.47;1.58;;;24.90;92.80;;;;;;4844943;29;20064;-54
2023/08/16 12:42:06;;;;;;;3.80;1.58;;;24.70;92.40;;;;;;4844605;29;20064;-53
2023/08/16 12:44:33;;;;;;;5.05;1.70;;;24.60;93.10;;;;;;4843731;29;20053;-48